This is the latest recevied weather packets stored in our database for station/object SV4JYD-14. If no packets are shown the sender has not sent any weather packets the latest 10 day(s).
| Time | Temp. | Humidity | Pressure | Rain* | Wind** | Luminosity | Snow |
|---|---|---|---|---|---|---|---|
| 1778003209 | 16.67° C | 53% | 1016 hPa | 0 mm | - | - | - |
| 1778001409 | 18.33° C | 48% | 1016 hPa | 0 mm | - | - | - |
| 1777998708 | 20° C | 42% | 1015 hPa | 0 mm | - | - | - |
| 1777997807 | 20.56° C | 43% | 1015 hPa | 0 mm | - | - | - |
| 1777995107 | 21.11° C | 38% | 1015 hPa | 0 mm | - | - | - |
| 1777994207 | 21.67° C | 38% | 1015 hPa | 0 mm | - | - | - |
| 1777991505 | 21.11° C | 38% | 1015 hPa | 0 mm | - | - | - |
| 1777990604 | 20.56° C | 39% | 1016 hPa | 0 mm | - | - | - |
| 1777988804 | 21.11° C | 43% | 1015 hPa | 0 mm | - | - | - |
| 1777987903 | 21.11° C | 38% | 1015 hPa | 0 mm | - | - | - |
| 1777987003 | 21.11° C | 37% | 1016 hPa | 0 mm | - | - | - |
| 1777984302 | 21.11° C | 37% | 1016 hPa | 0 mm | - | - | - |
| 1777981602 | 21.11° C | 33% | 1016 hPa | 0 mm | - | - | - |
| 1777980701 | 20.56° C | 31% | 1016 hPa | 0 mm | - | - | - |
| 1777979801 | 20.56° C | 30% | 1017 hPa | 0 mm | - | - | - |
| 1777978901 | 20.56° C | 29% | 1016 hPa | 0 mm | - | - | - |
| 1777976200 | 20° C | 30% | 1017 hPa | 0 mm | - | - | - |
| 1777975299 | 20° C | 30% | 1017 hPa | 0 mm | - | - | - |
| 1777973499 | 19.44° C | 37% | 1017 hPa | 0 mm | - | - | - |
| 1777972599 | 18.89° C | 38% | 1017 hPa | 0 mm | - | - | - |
| 1777971699 | 18.33° C | 45% | 1017 hPa | 0 mm | - | - | - |
| 1777970798 | 17.78° C | 52% | 1017 hPa | 0 mm | - | - | - |
| 1777969898 | 16.67° C | 59% | 1017 hPa | 0 mm | - | - | - |
| 1777968998 | 16.11° C | 65% | 1017 hPa | 0 mm | - | - | - |
| 1777968098 | 16.67° C | 65% | 1017 hPa | 0 mm | - | - | - |
* Rain latest hour (hover to see other rain measurements)
** Current wind speed in m/s (hover to see current wind gust speed)